Temperatura - Umidità - Pioggia orarie dal 22-03-2020 al 30-03-2020

Intensità - Direzione vento orarie dal 22-03-2020 al 30-03-2020

Dati orari da stazione meteo dal 22-03-2020 al 30-03-2020

Nome Stazione Data Ora Temperatura [°C] Umidità [%] Pioggia [mm] Pressione[hPa] Intensità vento[km/h] Direzione vento [°]
Mondovì 22-03-2020 01:00 6.5 78 0 1025.2 4.3 242
Mondovì 22-03-2020 01:20 7.2 78 0 1025.3 4.3 216
Mondovì 22-03-2020 01:30 7 78 0 1025.3 4 206
Mondovì 22-03-2020 01:40 7.3 77 0 1025.3 4.3 214
Mondovì 22-03-2020 01:50 7.3 76 0 1025.3 4 214
Mondovì 22-03-2020 02:00 7.4 76 0 1025.3 3.2 210
Mondovì 22-03-2020 02:10 7.6 75 0 1025.3 5 230
Mondovì 22-03-2020 02:20 8.1 75 0 1025.2 5.8 219
Mondovì 22-03-2020 02:30 8.4 73 0 1025.2 5 200
Mondovì 22-03-2020 02:40 8.4 73 0 1025.2 5.4 227
Mondovì 22-03-2020 02:50 8.6 73 0 1025.2 4.7 205
Mondovì 22-03-2020 03:00 8.8 72 0 1025.2 5.4 198
Mondovì 22-03-2020 03:10 9 72 0 1025.1 4 210
Mondovì 22-03-2020 03:20 9 73 0 1025.1 3.2 220
Mondovì 22-03-2020 03:30 8.8 74 0 1025.1 3.2 223
Mondovì 22-03-2020 03:40 8.5 75 0 1025.1 5 225
Mondovì 22-03-2020 03:50 9 74 0 1025 6.1 232
Mondovì 22-03-2020 04:00 9.5 72 0 1025 6.5 247
Mondovì 22-03-2020 04:10 9.6 71 0 1025 8.6 241
Mondovì 22-03-2020 04:20 9.5 71 0 1025 7.2 242
Mondovì 22-03-2020 04:30 9.4 72 0 1025 7.9 257
Mondovì 22-03-2020 04:40 9.3 73 0 1025 8.6 249
Mondovì 22-03-2020 04:50 9.2 74 0 1025 9.7 252
Mondovì 22-03-2020 05:00 9.2 75 0 1025 7.2 271
Mondovì 22-03-2020 05:10 9.2 77 0 1025 7.9 267
Mondovì 22-03-2020 05:20 8.9 78 0 1025 7.6 251
Mondovì 22-03-2020 05:30 8.9 78 0 1024.9 8.6 241
Mondovì 22-03-2020 05:40 8.9 79 0 1024.9 8.3 232
Mondovì 22-03-2020 05:50 8.9 80 0 1024.9 7.2 247
Mondovì 22-03-2020 06:00 8.8 81 0 1024.9 9.4 245
Mondovì 22-03-2020 06:10 8.7 82 0 1025 6.1 239
Mondovì 22-03-2020 06:20 8.7 82 0 1025 5.8 242
Mondovì 22-03-2020 06:30 8.9 82 0 1025 6.5 242
Mondovì 22-03-2020 06:40 9.1 82 0 1025 6.8 243
Mondovì 22-03-2020 06:50 9.2 82 0 1025 7.6 252
Mondovì 22-03-2020 07:00 9.3 82 0 1024.9 4.3 262
Mondovì 22-03-2020 07:10 9.4 83 0 1024.9 5.8 260
Mondovì 22-03-2020 07:20 9.6 83 0 1024.9 4.7 285
Mondovì 22-03-2020 07:30 9.6 84 0 1024.9 7.2 280
Mondovì 22-03-2020 07:40 9.7 84 0 1024.9 5.8 288
Mondovì 22-03-2020 07:50 9.8 84 0 1024.8 5.8 281
Mondovì 22-03-2020 08:00 9.8 84 0 1024.8 5.8 306
Mondovì 22-03-2020 08:10 9.9 85 0 1024.8 5.8 291
Mondovì 22-03-2020 08:20 10 85 0 1024.8 5.4 282
Mondovì 22-03-2020 08:30 10.1 85 0 1024.8 5.8 277
Mondovì 22-03-2020 08:40 10.2 86 0 1024.7 10.1 305
Mondovì 22-03-2020 08:50 10.2 86 0 1024.7 6.8 304
Mondovì 22-03-2020 09:00 10.2 87 0 1024.7 6.8 301
Mondovì 22-03-2020 09:10 10.3 87 0 1024.7 7.6 304
Mondovì 22-03-2020 09:20 10.6 86 0 1024.7 6.1 305
Mondovì 22-03-2020 09:30 10.7 85 0 1024.6 4.7 351
Mondovì 22-03-2020 09:40 10.7 85 0 1024.6 6.5 351
Mondovì 22-03-2020 09:50 10.8 85 0 1024.6 10.1 342
Mondovì 22-03-2020 10:00 11.2 84 0 1024.6 13 342
Mondovì 22-03-2020 10:10 11.2 82 0 1024.5 10.4 313
Mondovì 22-03-2020 10:20 11.2 83 0 1024.5 14.8 359
Mondovì 22-03-2020 10:30 10.7 84 0 1024.5 14.8 353
Mondovì 22-03-2020 10:40 10.6 83 0 1024.5 14 346
Mondovì 22-03-2020 10:50 10.6 82 0 1024.5 14 321
Mondovì 22-03-2020 11:00 11 79 0 1024.5 14 349
Mondovì 22-03-2020 11:10 11.3 77 0 1024.5 13 311
Mondovì 22-03-2020 11:20 12.1 75 0 1024.5 12.2 354
Mondovì 22-03-2020 11:30 12.4 73 0 1024.4 10.4 354
Mondovì 22-03-2020 11:40 12.1 72 0 1024.4 11.2 304
Mondovì 22-03-2020 11:50 11.8 73 0 1024.3 10.1 345
Mondovì 22-03-2020 12:00 12.1 73 0 1024.3 12.6 327
Mondovì 22-03-2020 12:10 12.7 71 0 1024.3 11.9 333
Mondovì 22-03-2020 12:20 12.7 70 0 1024.3 14.4 318
Mondovì 22-03-2020 12:30 12.7 72 0 1024.2 14 327
Mondovì 22-03-2020 12:40 12.3 73 0 1024.2 13.7 318
Mondovì 22-03-2020 12:50 12.4 73 0 1024.2 13.7 315
Mondovì 22-03-2020 13:00 12.1 75 0 1024.2 13.3 307
Mondovì 22-03-2020 13:10 12.1 75 0 1024.2 14.8 310
Mondovì 22-03-2020 13:20 11.7 76 0 1024.2 13.7 314
Mondovì 22-03-2020 13:30 11.3 78 0 1024.2 13.3 318
Mondovì 22-03-2020 13:40 11.1 78 0 1024.2 13.3 311
Mondovì 22-03-2020 13:50 11.3 77 0 1024.3 10.4 305
Mondovì 22-03-2020 14:00 11.3 78 0 1024.3 11.5 316
Mondovì 22-03-2020 14:10 11.1 78 0 1024.3 14 310
Mondovì 22-03-2020 14:20 11 79 0 1024.3 14.8 322
Mondovì 22-03-2020 14:30 11 79 0 1024.4 10.4 317
Mondovì 22-03-2020 14:40 11.1 80 0 1024.4 12.6 322
Mondovì 22-03-2020 14:50 10.9 84 0 1024.4 9.4 358
Mondovì 22-03-2020 15:00 10.2 86 0 1024.4 8.6 7
Mondovì 22-03-2020 15:10 10 86 0 1024.4 8.6 13
Mondovì 22-03-2020 15:20 10.1 85 0 1024.5 8.3 20
Mondovì 22-03-2020 15:30 10.2 85 0 1024.5 6.1 27
Mondovì 22-03-2020 15:40 10.2 84 0 1024.5 5.8 15
Mondovì 22-03-2020 15:50 10.2 84 0 1024.5 6.1 20
Mondovì 22-03-2020 16:00 10.1 85 0 1024.5 5.4 7
Mondovì 22-03-2020 16:10 10.1 85 0 1024.5 4.7 343
Mondovì 22-03-2020 16:20 10.1 86 0 1024.6 5.4 302
Mondovì 22-03-2020 16:30 10 89 0 1024.6 7.9 255
Mondovì 22-03-2020 16:40 9.8 92 0 1024.6 5 265
Mondovì 22-03-2020 16:50 9.8 93 0 1024.6 9.4 296
Mondovì 22-03-2020 17:00 9.9 93 0 1024.6 8.3 285
Mondovì 22-03-2020 17:10 9.9 93 0 1024.6 9.7 297
Mondovì 22-03-2020 17:20 9.8 93 0 1024.7 8.3 294
Mondovì 22-03-2020 17:30 9.8 94 0 1024.7 7.2 290
Mondovì 22-03-2020 17:40 9.8 94 0 1024.7 5.4 263
Mondovì 22-03-2020 17:50 9.7 94 0 1024.7 5.8 255
Mondovì 22-03-2020 18:00 9.6 94 0 1024.7 6.1 240
Mondovì 22-03-2020 18:10 9.6 94 0 1024.7 6.1 232
Mondovì 22-03-2020 18:20 9.6 94 0 1024.7 5.4 226
Mondovì 22-03-2020 18:30 9.6 95 0 1024.7 5.8 229
Mondovì 22-03-2020 18:40 9.5 95 0 1024.7 4.7 230
Mondovì 22-03-2020 18:50 9.4 95 0 1024.7 4 222
Mondovì 22-03-2020 19:00 9.4 95 0 1024.8 6.5 223
Mondovì 22-03-2020 19:10 9.4 95 0 1024.8 6.1 224
Mondovì 22-03-2020 19:20 9.5 94 0 1024.8 5.8 201
Mondovì 22-03-2020 19:30 9.4 94 0 1024.8 5.8 208
Mondovì 22-03-2020 19:40 9.4 95 0 1024.8 6.5 212
Mondovì 22-03-2020 19:50 9.3 95 0 1024.8 6.5 224
Mondovì 22-03-2020 20:00 9.3 94 0 1024.8 6.8 228
Mondovì 22-03-2020 20:10 9.3 94 0 1024.8 6.5 218
Mondovì 22-03-2020 20:20 9.2 94 0 1024.8 6.5 225
Mondovì 22-03-2020 20:30 9.2 94 0 1024.8 5.8 230
Mondovì 22-03-2020 20:40 9.2 94 0 1024.8 5 211
Mondovì 22-03-2020 20:50 9.2 94 0 1024.8 4.7 194
Mondovì 22-03-2020 21:00 9.2 93 0 1024.8 4.7 203
Mondovì 22-03-2020 21:10 9.1 94 0 1024.8 4.3 212
Mondovì 22-03-2020 21:20 8.9 94 0 1024.8 4.7 195
Mondovì 22-03-2020 21:30 8.8 95 0 1024.9 3.2 187
Mondovì 22-03-2020 21:40 8.6 95 0 1024.9 3.6 148
Mondovì 22-03-2020 21:50 8.2 96 0 1024.9 3.2 163
Mondovì 22-03-2020 22:00 8.3 95 0 1024.9 2.2 133
Mondovì 22-03-2020 22:10 8 96 0 1025 2.5 194
Mondovì 22-03-2020 22:20 7.9 96 0 1025 2.2 202
Mondovì 22-03-2020 22:30 7.9 97 0 1025 2.9 210
Mondovì 22-03-2020 22:40 7.9 97 0 1025 2.5 204
Mondovì 22-03-2020 22:50 7.9 97 0 1025 2.5 205
Mondovì 22-03-2020 23:00 8 97 0 1025 2.9 45
Mondovì 22-03-2020 23:10 8 97 0 1025 2.2 311
Mondovì 22-03-2020 23:20 7.9 97 0 1025 3.6 242
Mondovì 22-03-2020 23:30 7.9 97 0 1025 6.1 236
Mondovì 22-03-2020 23:40 8 97 0 1025 4.3 230
Mondovì 22-03-2020 23:50 8 97 0 1025 5 227
Mondovì 23-03-2020 00:00 8.2 97 0 1025 4.3 186
Mondovì 23-03-2020 00:10 8.3 97 0 1025 5.8 196
Mondovì 23-03-2020 00:20 8.3 96 0 1025 3.6 213
Mondovì 23-03-2020 00:30 8.3 96 0 1025 4 223
Mondovì 23-03-2020 00:40 8.3 95 0 1025 3.6 228
Mondovì 23-03-2020 00:50 8.3 96 0 1025 3.2 235
Mondovì 23-03-2020 01:00 8.2 95 0 1025 2.9 251
Mondovì 23-03-2020 01:20 9.1 94 0 1025 4.7 241
Mondovì 23-03-2020 01:30 8.3 94 0 1025 5 238
Mondovì 23-03-2020 01:40 8.3 93 0 1025 4.7 246
Mondovì 23-03-2020 01:50 8.3 93 0 1025 3.2 252
Mondovì 23-03-2020 02:00 8.3 92 0 1025 5 265
Mondovì 23-03-2020 02:10 8.3 92 0 1025 6.1 261
Mondovì 23-03-2020 02:20 8.3 92 0 1025 5.8 273
Mondovì 23-03-2020 02:30 8.3 91 0 1025 5 282
Mondovì 23-03-2020 02:40 8.3 91 0 1025 7.2 297
Mondovì 23-03-2020 02:50 8.2 92 0 1025 9.7 299
Mondovì 23-03-2020 03:00 8.1 93 0 1025 10.1 305
Mondovì 23-03-2020 03:10 7.9 94 0 1025 14 317
Mondovì 23-03-2020 03:20 7.5 91 0 1025 14 325
Mondovì 23-03-2020 03:30 7.3 88 0 1025 12.2 313
Mondovì 23-03-2020 03:40 7.1 84 0 1025 15.5 305
Mondovì 23-03-2020 03:50 6.9 78 0 1025.1 19.1 313
Mondovì 23-03-2020 04:00 6.5 80 0 1025.1 15.8 319
Mondovì 23-03-2020 04:10 6.2 80 0 1025.1 15.8 307
Mondovì 23-03-2020 04:20 6.2 82 0 1025.2 14.4 291
Mondovì 23-03-2020 04:30 6 84 0 1025.2 13.3 269
Mondovì 23-03-2020 04:40 5.9 86 0 1025.2 14.4 265
Mondovì 23-03-2020 04:50 5.7 86 0 1025.2 13.3 250
Mondovì 23-03-2020 05:00 5.7 86 0 1025.2 13 248
Mondovì 23-03-2020 05:10 5.7 86 0 1025.3 12.2 253
Mondovì 23-03-2020 05:20 5.6 88 0 1025.3 11.2 242
Mondovì 23-03-2020 05:30 5.5 89 0 1025.3 13.3 238
Mondovì 23-03-2020 05:40 5.2 89 0 1025.3 14.4 236
Mondovì 23-03-2020 05:50 5.2 90 0 1025.3 13.7 236
Mondovì 23-03-2020 06:00 5.2 90 0 1025.3 13.7 241
Mondovì 23-03-2020 06:10 5.3 89 0 1025.3 13 245
Mondovì 23-03-2020 06:20 5.2 89 0 1025.3 9.7 246
Mondovì 23-03-2020 06:30 5.2 89 0 1025.3 13 241
Mondovì 23-03-2020 06:40 5.2 88 0 1025.4 10.4 250
Mondovì 23-03-2020 06:50 5.4 87 0 1025.4 10.1 270
Mondovì 23-03-2020 07:00 5.4 86 0 1025.4 10.8 259
Mondovì 23-03-2020 07:10 5.4 87 0 1025.4 11.5 265
Mondovì 23-03-2020 07:20 5.3 87 0 1025.4 11.9 277
Mondovì 23-03-2020 07:30 5.3 87 0 1025.4 14 321
Mondovì 23-03-2020 07:40 4.9 70 0 1025.4 13.7 320
Mondovì 23-03-2020 07:50 4.8 69 0 1025.4 10.1 317
Mondovì 23-03-2020 08:00 4.8 69 0 1025.4 11.9 320
Mondovì 23-03-2020 08:10 4.7 68 0 1025.4 12.2 330
Mondovì 23-03-2020 08:20 4.7 70 0 1025.4 16.2 323
Mondovì 23-03-2020 08:30 4.4 67 0 1025.4 14 334
Mondovì 23-03-2020 08:40 4 70 0 1025.4 11.9 321
Mondovì 23-03-2020 08:50 3.9 69 0 1025.4 12.2 338
Mondovì 23-03-2020 09:00 3.8 69 0 1025.5 10.8 316
Mondovì 23-03-2020 09:10 3.8 67 0 1025.5 11.2 329
Mondovì 23-03-2020 09:20 3.8 68 0 1025.5 7.2 332
Mondovì 23-03-2020 09:30 4 69 0 1025.5 7.6 282
Mondovì 23-03-2020 09:40 4.2 68 0 1025.5 9.4 274
Mondovì 23-03-2020 09:50 4.2 67 0 1025.5 11.5 270
Mondovì 23-03-2020 10:00 4.3 64 0 1025.5 10.4 277
Mondovì 23-03-2020 10:10 4.3 63 0 1025.5 13 281
Mondovì 23-03-2020 10:20 4.2 62 0 1025.5 15.1 281
Mondovì 23-03-2020 10:30 4.1 63 0 1025.5 18.4 293
Mondovì 23-03-2020 10:40 4 64 0 1025.5 13.7 276
Mondovì 23-03-2020 10:50 4 62 0 1025.5 14.4 286
Mondovì 23-03-2020 11:00 4 63 0 1025.5 13.3 278
Mondovì 23-03-2020 11:10 4 63 0 1025.5 19.1 286
Mondovì 23-03-2020 11:20 4 63 0 1025.5 13 295
Mondovì 23-03-2020 11:30 4 64 0 1025.5 13.3 289
Mondovì 23-03-2020 11:40 4.2 63 0 1025.5 13 294
Mondovì 23-03-2020 11:50 4.3 60 0 1025.5 11.5 301
Mondovì 23-03-2020 12:00 4.2 59 0 1025.5 14.4 311
Mondovì 23-03-2020 12:10 4.2 60 0 1025.5 15.5 283
Mondovì 23-03-2020 12:20 4.3 58 0 1025.5 12.2 285
Mondovì 23-03-2020 12:30 4.5 56 0 1025.5 12.6 282
Mondovì 23-03-2020 12:40 4.5 56 0 1025.5 14.4 287
Mondovì 23-03-2020 12:50 4.9 56 0 1025.5 15.1 277
Mondovì 23-03-2020 13:00 4.9 56 0 1025.4 14 283
Mondovì 23-03-2020 13:10 5 56 0 1025.4 14.4 286
Mondovì 23-03-2020 13:20 4.9 56 0 1025.4 13.3 286
Mondovì 23-03-2020 13:30 5 56 0 1025.4 14.4 290
Mondovì 23-03-2020 13:40 5 56 0 1025.4 12.6 295
Mondovì 23-03-2020 13:50 5.2 55 0 1025.3 12.6 278
Mondovì 23-03-2020 14:00 5.2 55 0 1025.3 13 290
Mondovì 23-03-2020 14:10 5.2 56 0 1025.3 12.2 292
Mondovì 23-03-2020 14:20 5.2 56 0 1025.3 13 276
Mondovì 23-03-2020 14:30 5.2 55 0 1025.3 13.3 279
Mondovì 23-03-2020 14:40 5.4 54 0 1025.3 11.2 293
Mondovì 23-03-2020 14:50 5.6 54 0 1025.3 14 286
Mondovì 23-03-2020 15:00 5.7 54 0 1025.2 13.7 272
Mondovì 23-03-2020 15:10 5.7 54 0 1025.2 13.3 264
Mondovì 23-03-2020 15:20 5.7 53 0 1025.2 13 275
Mondovì 23-03-2020 15:30 5.7 54 0 1025.2 12.2 262
Mondovì 23-03-2020 15:40 5.6 54 0 1025.2 13.7 286
Mondovì 23-03-2020 15:50 5.4 54 0 1025.2 12.6 273
Mondovì 23-03-2020 16:00 5.4 54 0 1025.2 12.2 261
Mondovì 23-03-2020 16:10 5.3 54 0 1025.2 11.2 294
Mondovì 23-03-2020 16:20 5.3 55 0 1025.2 14 262
Mondovì 23-03-2020 16:30 5.4 54 0 1025.2 12.6 277
Mondovì 23-03-2020 16:40 5.2 54 0 1025.2 10.8 266
Mondovì 23-03-2020 16:50 5.1 54 0 1025.2 11.2 255
Mondovì 23-03-2020 17:00 5.1 55 0 1025.2 9.7 262
Mondovì 23-03-2020 17:10 5 55 0 1025.2 9.7 255
Mondovì 23-03-2020 17:20 4.8 55 0 1025.2 10.1 244
Mondovì 23-03-2020 17:30 4.8 55 0 1025.3 6.8 261
Mondovì 23-03-2020 17:40 4.8 55 0 1025.3 7.9 245
Mondovì 23-03-2020 17:50 4.6 58 0 1025.3 7.6 245
Mondovì 23-03-2020 18:00 4.5 59 0 1025.3 9.4 252
Mondovì 23-03-2020 18:10 4.3 59 0 1025.3 10.1 238
Mondovì 23-03-2020 18:20 4.1 60 0 1025.4 10.4 233
Mondovì 23-03-2020 18:30 4 61 0 1025.4 9.4 249
Mondovì 23-03-2020 18:40 3.9 62 0 1025.4 9 242
Mondovì 23-03-2020 18:50 3.8 62 0 1025.4 7.9 245
Mondovì 23-03-2020 19:00 3.7 63 0 1025.5 7.6 249
Mondovì 23-03-2020 19:10 3.6 63 0 1025.5 7.6 255
Mondovì 23-03-2020 19:20 3.5 64 0 1025.5 9 255
Mondovì 23-03-2020 19:30 3.5 65 0 1025.5 7.9 255
Mondovì 23-03-2020 19:40 3.3 65 0 1025.6 5.8 254
Mondovì 23-03-2020 19:50 3.2 66 0 1025.6 6.5 260
Mondovì 23-03-2020 20:00 3 68 0 1025.6 4.3 283
Mondovì 23-03-2020 20:10 2.8 69 0 1025.7 5 291
Mondovì 23-03-2020 20:20 2.7 69 0 1025.7 4 258
Mondovì 23-03-2020 20:30 2.5 69 0 1025.7 5 293
Mondovì 23-03-2020 20:40 2.4 70 0 1025.8 4 312
Mondovì 23-03-2020 20:50 2.1 71 0 1025.8 2.9 316
Mondovì 23-03-2020 21:00 1.7 74 0 1025.8 2.2 301
Mondovì 23-03-2020 21:10 1.2 75 0 1025.9 2.9 249
Mondovì 23-03-2020 21:20 1.1 75 0 1025.9 2.5 212
Mondovì 23-03-2020 21:30 1 77 0 1026 6.1 145
Mondovì 23-03-2020 21:40 1.6 77 0 1026 5.8 136
Mondovì 23-03-2020 21:50 1.9 75 0 1026 5.4 152
Mondovì 23-03-2020 22:00 1.9 76 0 1026.1 4.7 185
Mondovì 23-03-2020 22:10 1.9 77 0 1026 3.2 179
Mondovì 23-03-2020 22:20 1.9 78 0 1026 4 178
Mondovì 23-03-2020 22:30 1.9 79 0 1026 2.9 235
Mondovì 23-03-2020 22:40 1.9 80 0 1026 4 243
Mondovì 23-03-2020 22:50 1.9 80 0 1026 3.6 232
Mondovì 23-03-2020 23:00 2.1 80 0 1026 3.6 188
Mondovì 23-03-2020 23:10 2.1 79 0 1026 3.6 226
Mondovì 23-03-2020 23:20 2.2 80 0 1026 4 201
Mondovì 23-03-2020 23:30 2.2 80 0 1025.9 4.3 204
Mondovì 23-03-2020 23:40 2.2 80 0 1025.9 4 191
Mondovì 23-03-2020 23:50 2.3 80 0 1025.9 4.7 156
Mondovì 24-03-2020 00:00 2.3 80 0 1025.9 3.6 177
Mondovì 24-03-2020 00:10 2.3 80 0 1025.9 4 187
Mondovì 24-03-2020 00:20 2.3 81 0 1025.9 4.7 171
Mondovì 24-03-2020 00:30 2.4 81 0 1025.9 5.4 98
Mondovì 24-03-2020 00:40 2.2 84 0 1025.9 3.6 90
Mondovì 24-03-2020 00:50 1.8 84 0 1025.9 4.7 89
Mondovì 24-03-2020 01:00 1.6 85 0 1025.9 4 85
Mondovì 24-03-2020 01:20 2.1 85 0 1025.9 3.2 85
Mondovì 24-03-2020 01:30 1.4 85 0 1025.9 4 85
Mondovì 24-03-2020 01:40 1.3 85 0 1025.9 4 85
Mondovì 24-03-2020 01:50 1.2 85 0 1026 4 85
Mondovì 24-03-2020 02:00 1.2 84 0 1026 3.6 85
Mondovì 24-03-2020 02:10 1.2 84 0 1026 3.2 85
Mondovì 24-03-2020 02:20 1.2 85 0 1026 3.6 85
Mondovì 24-03-2020 02:30 1.1 86 0 1026 3.2 85
Mondovì 24-03-2020 02:40 1.2 86 0 1026 2.9 85
Mondovì 24-03-2020 02:50 1.2 85 0 1026 4 85
Mondovì 24-03-2020 03:00 1.2 85 0 1026 3.6 85
Mondovì 24-03-2020 03:10 1.2 85 0 1026 1.8 85
Mondovì 24-03-2020 03:20 1.2 84 0 1026 3.2 85
Mondovì 24-03-2020 03:30 1.3 84 0 1026 2.9 85
Mondovì 24-03-2020 03:40 1.4 83 0 1026 2.5 85
Mondovì 24-03-2020 03:50 1.5 84 0 1026 2.5 85
Mondovì 24-03-2020 04:00 1.5 84 0 1026 2.9 85
Mondovì 24-03-2020 04:10 1.5 84 0 1026 4 85
Mondovì 24-03-2020 04:20 1.4 84 0 1026 3.2 85
Mondovì 24-03-2020 04:30 1.4 84 0 1026 3.6 85
Mondovì 24-03-2020 04:40 1.3 86 0 1026 3.6 85
Mondovì 24-03-2020 04:50 1.2 86 0 1026 3.6 85
Mondovì 24-03-2020 05:00 1.2 86 0 1026 2.2 85
Mondovì 24-03-2020 05:10 1.2 87 0 1026 3.2 85
Mondovì 24-03-2020 05:20 1.1 87 0 1026 4 85
Mondovì 24-03-2020 05:30 1.2 88 0 1026 3.2 85
Mondovì 24-03-2020 05:40 1.3 88 0 1026 3.2 85
Mondovì 24-03-2020 05:50 1.3 88 0 1026 2.9 85
Mondovì 24-03-2020 06:00 1.3 89 0 1026 3.6 44
Mondovì 24-03-2020 06:10 1.4 89 0 1026 3.6 13
Mondovì 24-03-2020 06:20 1.5 88 0 1026 1.4 12
Mondovì 24-03-2020 06:30 1.6 88 0 1026 2.2 12
Mondovì 24-03-2020 06:40 1.7 88 0 1026 2.5 12
Mondovì 24-03-2020 06:50 2 87 0 1026 2.9 204
Mondovì 24-03-2020 07:00 2.2 84 0 1026 4.7 209
Mondovì 24-03-2020 07:10 2.5 83 0 1026 6.5 179
Mondovì 24-03-2020 07:20 2.5 81 0 1026 11.5 222
Mondovì 24-03-2020 07:30 2.4 85 0 1026 9 350
Mondovì 24-03-2020 07:40 2 86 0 1026 7.6 31
Mondovì 24-03-2020 07:50 1.6 87 0 1025.9 3.2 118
Mondovì 24-03-2020 08:00 2 86 0 1025.9 7.9 231
Mondovì 24-03-2020 08:10 2.5 85 0 1025.9 8.3 242
Mondovì 24-03-2020 08:20 2.7 82 0 1025.9 5.8 253
Mondovì 24-03-2020 08:30 3.2 80 0 1025.9 6.1 303
Mondovì 24-03-2020 08:40 3.2 82 0 1025.9 7.6 73
Mondovì 24-03-2020 08:50 3.4 82 0 1025.9 4.7 193
Mondovì 24-03-2020 09:00 4.2 78 0 1025.9 6.5 279
Mondovì 24-03-2020 09:10 5 72 0 1025.8 9.7 255
Mondovì 24-03-2020 09:20 5.2 67 0 1025.8 10.1 269
Mondovì 24-03-2020 09:30 5.3 65 0 1025.7 10.8 264
Mondovì 24-03-2020 09:40 7.3 59 0 1025.6 10.8 251
Mondovì 24-03-2020 09:50 7.6 55 0 1025.6 12.2 273
Mondovì 24-03-2020 10:00 7.2 58 0 1025.4 10.8 268
Mondovì 24-03-2020 10:10 5.9 60 0 1025.3 10.1 277
Mondovì 24-03-2020 10:20 6.3 59 0 1025.3 11.9 294
Mondovì 24-03-2020 10:30 8.3 56 0 1025.2 10.1 281
Mondovì 24-03-2020 10:40 8.3 56 0 1025.2 9 283
Mondovì 24-03-2020 10:50 7 57 0 1025 10.8 279
Mondovì 24-03-2020 11:00 6.7 56 0 1025 14.4 262
Mondovì 24-03-2020 11:10 7.2 56 0 1024.9 10.1 276
Mondovì 24-03-2020 11:20 7 56 0 1024.9 10.8 272
Mondovì 24-03-2020 11:30 6.8 56 0 1024.9 13.3 292
Mondovì 24-03-2020 11:40 7.8 55 0 1024.8 13.7 284
Mondovì 24-03-2020 11:50 9.3 52 0 1024.8 14.4 249
Mondovì 24-03-2020 12:00 9.4 50 0 1024.8 21.2 280
Mondovì 24-03-2020 12:10 8.9 51 0 1024.7 16.2 300
Mondovì 24-03-2020 12:20 8 53 0 1024.6 13 289
Mondovì 24-03-2020 12:30 7.1 55 0 1024.5 11.9 295
Mondovì 24-03-2020 12:40 8.4 54 0 1024.5 14 282
Mondovì 24-03-2020 12:50 9.8 50 0 1024.6 20.2 269
Mondovì 24-03-2020 13:00 9.7 48 0 1024.6 12.2 267
Mondovì 24-03-2020 13:10 8.2 50 0 1024.5 11.5 276
Mondovì 24-03-2020 13:20 7.7 48 0 1024.5 13.3 284
Mondovì 24-03-2020 13:30 9.5 45 0 1024.6 16.2 276
Mondovì 24-03-2020 13:40 10.2 44 0 1024.6 14.4 287
Mondovì 24-03-2020 13:50 10 46 0 1024.6 13.7 289
Mondovì 24-03-2020 14:00 8.4 46 0 1024.5 13.7 291
Mondovì 24-03-2020 14:10 9.5 45 0 1024.5 13.3 274
Mondovì 24-03-2020 14:20 9.6 43 0 1024.5 10.8 254
Mondovì 24-03-2020 14:30 10.6 42 0 1024.5 12.2 276
Mondovì 24-03-2020 14:40 11.1 39 0 1024.5 13.3 259
Mondovì 24-03-2020 14:50 11.4 37 0 1024.4 14.8 258
Mondovì 24-03-2020 15:00 11.4 38 0 1024.3 14.8 279
Mondovì 24-03-2020 15:10 9.4 38 0 1024.2 9.4 290
Mondovì 24-03-2020 15:20 10.1 37 0 1024.2 10.8 253
Mondovì 24-03-2020 15:30 10.1 36 0 1024.2 12.2 263
Mondovì 24-03-2020 15:40 11 35 0 1024.2 10.4 251
Mondovì 24-03-2020 15:50 10.1 39 0 1024.2 10.8 295
Mondovì 24-03-2020 16:00 9.6 38 0 1024.2 15.8 306
Mondovì 24-03-2020 16:10 10.2 37 0 1024.2 15.8 279
Mondovì 24-03-2020 16:20 10.5 34 0 1024.2 11.5 290
Mondovì 24-03-2020 16:30 10.6 33 0 1024.2 14.4 308
Mondovì 24-03-2020 16:40 10.5 33 0 1024.2 11.9 275
Mondovì 24-03-2020 16:50 10.3 33 0 1024.2 11.9 304
Mondovì 24-03-2020 17:00 10.2 34 0 1024.2 11.9 261
Mondovì 24-03-2020 17:10 10.2 34 0 1024.2 9 271
Mondovì 24-03-2020 17:20 10.2 35 0 1024.2 11.2 298
Mondovì 24-03-2020 17:30 9.9 34 0 1024.2 8.6 339
Mondovì 24-03-2020 17:40 9.7 32 0 1024.3 9 308
Mondovì 24-03-2020 17:50 9.2 32 0 1024.3 7.9 306
Mondovì 24-03-2020 18:00 9 33 0 1024.4 9.7 293
Mondovì 24-03-2020 18:10 8.7 35 0 1024.4 7.6 290
Mondovì 24-03-2020 18:20 8.1 37 0 1024.5 7.6 260
Mondovì 24-03-2020 18:30 7 39 0 1024.6 5.8 257
Mondovì 24-03-2020 18:40 6.3 41 0 1024.7 4 261
Mondovì 24-03-2020 18:50 5.7 43 0 1024.9 4 251
Mondovì 24-03-2020 19:00 5.1 45 0 1025 5 239
Mondovì 24-03-2020 19:10 4.4 45 0 1025.1 4.7 236
Mondovì 24-03-2020 19:20 4.2 47 0 1025.2 4.3 235
Mondovì 24-03-2020 19:30 4.1 50 0 1025.3 4.7 236
Mondovì 24-03-2020 19:40 4.2 55 0 1025.4 10.1 182
Mondovì 24-03-2020 19:50 4.2 57 0 1025.4 8.6 179
Mondovì 24-03-2020 20:00 4 59 0 1025.5 9.7 185
Mondovì 24-03-2020 20:10 3.7 60 0 1025.5 8.6 193
Mondovì 24-03-2020 20:20 3.5 60 0 1025.6 8.6 188
Mondovì 24-03-2020 20:30 3.3 60 0 1025.6 9.7 192
Mondovì 24-03-2020 20:40 3.2 60 0 1025.6 11.2 183
Mondovì 24-03-2020 20:50 3.2 59 0 1025.7 9.4 182
Mondovì 24-03-2020 21:00 3.1 59 0 1025.7 9 198
Mondovì 24-03-2020 21:10 3 59 0 1025.7 8.6 196
Mondovì 24-03-2020 21:20 2.9 59 0 1025.8 9 224
Mondovì 24-03-2020 21:30 2.6 63 0 1025.8 6.1 270
Mondovì 24-03-2020 21:40 2 65 0 1025.8 7.2 280
Mondovì 24-03-2020 21:50 1.4 67 0 1025.9 5.4 290
Mondovì 24-03-2020 22:00 1.1 66 0 1025.9 4.7 225
Mondovì 24-03-2020 22:10 1.6 66 0 1026 5 184
Mondovì 24-03-2020 22:20 1.6 66 0 1026 5.8 111
Mondovì 24-03-2020 22:30 1 69 0 1026 5.4 91
Mondovì 24-03-2020 22:40 0.2 70 0 1026.1 3.6 162
Mondovì 24-03-2020 22:50 0.6 69 0 1026.1 4.3 83
Mondovì 24-03-2020 23:00 0.2 70 0 1026.2 2.2 251
Mondovì 24-03-2020 23:10 0.1 71 0 1026.2 3.2 238
Mondovì 24-03-2020 23:20 0.2 71 0 1026.3 2.9 191
Mondovì 24-03-2020 23:30 0.1 72 0 1026.3 2.9 277
Mondovì 24-03-2020 23:40 -0.5 73 0 1026.3 2.5 247
Mondovì 24-03-2020 23:50 -0.6 74 0 1026.4 4 228
Mondovì 25-03-2020 00:00 -1 75 0 1026.4 4 237
Mondovì 25-03-2020 00:10 -1 75 0 1026.5 3.6 178
Mondovì 25-03-2020 00:20 -0.9 75 0 1026.5 3.2 214
Mondovì 25-03-2020 00:30 -1 74 0 1026.5 2.5 296
Mondovì 25-03-2020 00:40 -1.2 76 0 1026.5 3.2 239
Mondovì 25-03-2020 00:50 -1.1 74 0 1026.6 3.2 231
Mondovì 25-03-2020 01:00 -1.2 75 0 1026.6 3.2 294
Mondovì 25-03-2020 01:20 -0.6 75 0 1026.6 4.7 271
Mondovì 25-03-2020 01:30 -1.5 75 0 1026.6 5 281
Mondovì 25-03-2020 01:40 -1.6 76 0 1026.7 3.6 201
Mondovì 25-03-2020 01:50 -1.9 76 0 1026.7 5.8 211
Mondovì 25-03-2020 02:00 -0.8 75 0 1026.7 8.3 183
Mondovì 25-03-2020 02:10 -0.4 72 0 1026.7 7.2 198
Mondovì 25-03-2020 02:20 -0.1 70 0 1026.7 7.2 213
Mondovì 25-03-2020 02:30 0.1 69 0 1026.7 7.6 225
Mondovì 25-03-2020 02:40 0.2 69 0 1026.6 6.5 212
Mondovì 25-03-2020 02:50 0.6 67 0 1026.6 6.5 183
Mondovì 25-03-2020 03:00 0.7 65 0 1026.5 5 184
Mondovì 25-03-2020 03:10 0.7 67 0 1026.5 6.1 210
Mondovì 25-03-2020 03:20 0.5 68 0 1026.5 5.8 267
Mondovì 25-03-2020 03:30 0.7 67 0 1026.4 4 279
Mondovì 25-03-2020 03:40 0.7 66 0 1026.4 6.8 260
Mondovì 25-03-2020 03:50 0.7 66 0 1026.4 5 266
Mondovì 25-03-2020 04:00 0.7 68 0 1026.3 8.6 250
Mondovì 25-03-2020 04:10 0.7 69 0 1026.3 6.5 261
Mondovì 25-03-2020 04:20 0.8 69 0 1026.3 9 256
Mondovì 25-03-2020 04:30 0.8 69 0 1026.3 7.9 242
Mondovì 25-03-2020 04:40 0.9 68 0 1026.3 9 241
Mondovì 25-03-2020 04:50 0.9 68 0 1026.3 9.7 247
Mondovì 25-03-2020 05:00 0.8 68 0 1026.3 12.6 253
Mondovì 25-03-2020 05:10 0.7 68 0 1026.3 13.7 257
Mondovì 25-03-2020 05:20 0.7 69 0 1026.2 8.3 267
Mondovì 25-03-2020 05:30 0.6 69 0 1026.2 8.3 268
Mondovì 25-03-2020 05:40 0.4 70 0 1026.2 10.8 254
Mondovì 25-03-2020 05:50 0.3 71 0 1026.2 9 240
Mondovì 25-03-2020 06:00 0 71 0 1026.2 10.1 239
Mondovì 25-03-2020 06:10 0.1 71 0 1026.3 10.1 242
Mondovì 25-03-2020 06:20 0.2 71 0 1026.3 11.2 240
Mondovì 25-03-2020 06:30 0.2 70 0 1026.3 10.1 236
Mondovì 25-03-2020 06:40 0.3 70 0 1026.3 10.4 235
Mondovì 25-03-2020 06:50 0.4 70 0 1026.3 10.8 235
Mondovì 25-03-2020 07:00 0.6 69 0 1026.3 11.5 233
Mondovì 25-03-2020 07:10 0.7 69 0 1026.3 10.8 252
Mondovì 25-03-2020 07:20 0.8 69 0 1026.3 7.6 246
Mondovì 25-03-2020 07:30 1 69 0 1026.3 9.4 244
Mondovì 25-03-2020 07:40 1.2 68 0 1026.2 8.6 241
Mondovì 25-03-2020 07:50 1.4 67 0 1026.2 9.4 229
Mondovì 25-03-2020 08:00 1.6 67 0 1026.2 10.8 230
Mondovì 25-03-2020 08:10 1.7 66 0 1026.2 8.3 241
Mondovì 25-03-2020 08:20 2.1 66 0 1026.2 7.9 239
Mondovì 25-03-2020 08:30 2.4 65 0 1026.1 8.6 232
Mondovì 25-03-2020 08:40 2.7 63 0 1026.1 7.6 257
Mondovì 25-03-2020 08:50 2.9 63 0 1026 7.9 280
Mondovì 25-03-2020 09:00 2.9 62 0 1026 6.5 267
Mondovì 25-03-2020 09:10 3 61 0 1025.9 5.4 241
Mondovì 25-03-2020 09:20 3 62 0 1025.9 10.1 309
Mondovì 25-03-2020 09:30 2.9 65 0 1025.9 9.4 248
Mondovì 25-03-2020 09:40 2.8 69 0 1025.8 11.2 256
Mondovì 25-03-2020 09:50 2.9 69 0 1025.8 11.9 245
Mondovì 25-03-2020 10:00 2.9 70 0 1025.8 11.9 228
Mondovì 25-03-2020 10:10 2.8 72 0 1025.7 10.8 194
Mondovì 25-03-2020 10:20 2.4 74 0 1025.7 8.3 218
Mondovì 25-03-2020 10:30 2.5 73 0 1025.7 11.2 229
Mondovì 25-03-2020 10:40 2.3 78 0 1025.7 13.3 228
Mondovì 25-03-2020 10:50 2.2 80 0 1025.7 11.9 245
Mondovì 25-03-2020 11:00 2.6 78 0 1025.7 13.3 267
Mondovì 25-03-2020 11:10 2.7 79 0 1025.7 14 243
Mondovì 25-03-2020 11:20 3.4 79 0 1025.7 12.6 250
Mondovì 25-03-2020 11:30 4.3 77 0 1025.7 12.2 250
Mondovì 25-03-2020 11:40 4.7 70 0 1025.7 11.5 245
Mondovì 25-03-2020 11:50 4.9 66 0 1025.6 14.4 240
Mondovì 25-03-2020 12:00 4.5 67 0 1025.5 13.7 267
Mondovì 25-03-2020 12:10 4.1 64 0 1025.4 14.4 298
Mondovì 25-03-2020 12:20 4.3 65 0 1025.4 12.6 263
Mondovì 25-03-2020 12:30 4.5 61 0 1025.4 15.1 272
Mondovì 25-03-2020 12:40 4.5 67 0 1025.4 12.2 248
Mondovì 25-03-2020 12:50 4.5 66 0 1025.4 11.2 275
Mondovì 25-03-2020 13:00 4.6 60 0 1025.4 12.6 241
Mondovì 25-03-2020 13:10 4.3 60 0 1025.3 13.7 252
Mondovì 25-03-2020 13:20 4.2 61 0 1025.3 10.8 261
Mondovì 25-03-2020 13:30 4.6 65 0 1025.4 15.8 252
Mondovì 25-03-2020 13:40 5 59 0 1025.4 17.3 255
Mondovì 25-03-2020 13:50 4.9 60 0 1025.4 18.4 278
Mondovì 25-03-2020 14:00 5 58 0 1025.4 14 291
Mondovì 25-03-2020 14:10 4.7 65 0 1025.3 13.3 267
Mondovì 25-03-2020 14:20 4.1 67 0 1025.3 15.1 236
Mondovì 25-03-2020 14:30 4.8 67 0 1025.3 16.9 243
Mondovì 25-03-2020 14:40 4.9 65 0 1025.3 19.4 238
Mondovì 25-03-2020 14:50 4.9 64 0 1025.3 16.6 259
Mondovì 25-03-2020 15:00 4.7 61 0 1025.3 11.2 263
Mondovì 25-03-2020 15:10 4.6 61 0 1025.3 16.9 278
Mondovì 25-03-2020 15:20 4.5 60 0 1025.4 12.6 281
Mondovì 25-03-2020 15:30 4.5 60 0 1025.4 13 263
Mondovì 25-03-2020 15:40 4.4 59 0 1025.4 11.9 280
Mondovì 25-03-2020 15:50 4.4 60 0 1025.4 11.5 266
Mondovì 25-03-2020 16:00 4.6 59 0 1025.4 12.2 278
Mondovì 25-03-2020 16:10 4.9 58 0 1025.4 12.6 275
Mondovì 25-03-2020 16:20 4.9 57 0 1025.4 11.9 290
Mondovì 25-03-2020 16:30 4.9 56 0 1025.4 12.6 295
Mondovì 25-03-2020 16:40 4.9 58 0 1025.4 13.7 300
Mondovì 25-03-2020 16:50 5 57 0 1025.4 15.5 304
Mondovì 25-03-2020 17:00 4.7 61 0 1025.4 26.6 312
Mondovì 25-03-2020 17:10 4.4 68 0 1025.4 15.8 298
Mondovì 25-03-2020 17:20 4.6 68 0 1025.5 9.4 284
Mondovì 25-03-2020 17:30 4.7 65 0 1025.5 9.7 241
Mondovì 25-03-2020 17:40 4.4 65 0 1025.5 8.3 249
Mondovì 25-03-2020 17:50 4 67 0 1025.5 10.4 239
Mondovì 25-03-2020 18:00 3.6 69 0 1025.5 12.2 241
Mondovì 25-03-2020 18:10 3.4 67 0 1025.5 7.6 235
Mondovì 25-03-2020 18:20 3.4 66 0 1025.6 7.6 256
Mondovì 25-03-2020 18:30 3.4 66 0 1025.6 5 268
Mondovì 25-03-2020 18:40 3.3 65 0 1025.6 7.2 228
Mondovì 25-03-2020 18:50 3.2 67 0 1025.6 5.4 241
Mondovì 25-03-2020 19:00 2.9 69 0 1025.7 6.1 239
Mondovì 25-03-2020 19:10 2.7 68 0 1025.7 6.5 241
Mondovì 25-03-2020 19:20 2.6 69 0 1025.7 6.5 271
Mondovì 25-03-2020 19:30 2.5 69 0 1025.8 6.8 269
Mondovì 25-03-2020 19:40 2.3 69 0 1025.8 5.8 284
Mondovì 25-03-2020 19:50 2.2 66 0 1025.9 5 285
Mondovì 25-03-2020 20:00 2.2 66 0 1025.9 6.1 277
Mondovì 25-03-2020 20:10 2.3 64 0 1025.9 4.3 281
Mondovì 25-03-2020 20:20 2.3 66 0 1025.9 5 275
Mondovì 25-03-2020 20:30 2.1 66 0 1026 5 249
Mondovì 25-03-2020 20:40 1.8 67 0 1026 4.7 245
Mondovì 25-03-2020 20:50 1.6 69 0 1026 4.3 229
Mondovì 25-03-2020 21:00 1.2 70 0 1026 5.4 227
Mondovì 25-03-2020 21:10 0.9 69 0 1026.1 5.8 243
Mondovì 25-03-2020 21:20 1 69 0 1026.1 8.3 263
Mondovì 25-03-2020 21:30 1.1 69 0 1026.1 7.2 263
Mondovì 25-03-2020 21:40 1.1 70 0 1026.2 6.8 287
Mondovì 25-03-2020 21:50 0.9 70 0 1026.2 7.6 287
Mondovì 25-03-2020 22:00 1 69 0 1026.2 9.4 279
Mondovì 25-03-2020 22:10 0.9 69 0 1026.2 6.8 255
Mondovì 25-03-2020 22:20 0.7 70 0 1026.2 6.8 232
Mondovì 25-03-2020 22:30 0.8 69 0 1026.3 7.6 239
Mondovì 25-03-2020 22:40 0.7 70 0 1026.3 7.6 236
Mondovì 25-03-2020 22:50 0.7 70 0 1026.3 7.6 242
Mondovì 25-03-2020 23:00 0.8 69 0 1026.3 7.6 250
Mondovì 25-03-2020 23:10 1 68 0 1026.3 9 252
Mondovì 25-03-2020 23:20 1 69 0 1026.3 9.4 252
Mondovì 25-03-2020 23:30 1.1 70 0 1026.3 11.2 257
Mondovì 25-03-2020 23:40 1.2 71 0 1026.3 9.7 262
Mondovì 25-03-2020 23:50 1.2 71 0 1026.3 8.3 266
Mondovì 26-03-2020 00:00 1.4 71 0 1026.3 7.9 262
Mondovì 26-03-2020 00:10 1.5 71 0 1026.3 7.9 284
Mondovì 26-03-2020 00:20 1.4 72 0 1026.3 6.5 280
Mondovì 26-03-2020 00:30 1.5 72 0 1026.2 10.8 288
Mondovì 26-03-2020 00:40 1.5 71 0 1026.2 9.4 284
Mondovì 26-03-2020 00:50 1.3 72 0 1026.2 6.1 263
Mondovì 26-03-2020 01:00 0.8 73 0 1026.2 6.1 269
Mondovì 26-03-2020 01:20 1.2 79 0 1026.2 7.2 271
Mondovì 26-03-2020 01:30 0.6 79 0 1026.3 7.9 267
Mondovì 26-03-2020 01:40 0.6 78 0 1026.3 7.9 243
Mondovì 26-03-2020 01:50 0.5 79 0 1026.3 9 244
Mondovì 26-03-2020 02:00 0.6 78 0 1026.3 10.4 244
Mondovì 26-03-2020 02:10 0.9 78 0 1026.3 12.2 252
Mondovì 26-03-2020 02:20 0.9 78 0 1026.3 11.5 259
Mondovì 26-03-2020 02:30 0.8 79 0 1026.3 11.2 261
Mondovì 26-03-2020 02:40 0.6 80 0 1026.3 10.1 278
Mondovì 26-03-2020 02:50 0.6 80 0 1026.3 9.7 274
Mondovì 26-03-2020 03:00 0.8 80 0 1026.3 9.4 286
Mondovì 26-03-2020 03:10 0.8 79 0 1026.3 10.4 280
Mondovì 26-03-2020 03:20 0.9 79 0 1026.3 11.2 291
Mondovì 26-03-2020 03:30 0.9 78 0 1026.3 9 293
Mondovì 26-03-2020 03:40 1 78 0 1026.3 12.2 291
Mondovì 26-03-2020 03:50 1 77 0 1026.3 9.4 289
Mondovì 26-03-2020 04:00 1 76 0 1026.3 13.3 303
Mondovì 26-03-2020 04:10 0.9 77 0 1026.2 10.4 308
Mondovì 26-03-2020 04:20 0.9 77 0 1026.2 8.3 303
Mondovì 26-03-2020 04:30 0.8 77 0 1026.2 9.4 298
Mondovì 26-03-2020 04:40 0.6 77 0 1026.2 6.8 306
Mondovì 26-03-2020 04:50 0.6 76 0 1026.2 6.5 304
Mondovì 26-03-2020 05:00 0.7 75 0 1026.2 8.3 303
Mondovì 26-03-2020 05:10 0.7 73 0 1026.2 8.3 299
Mondovì 26-03-2020 05:20 0.8 70 0 1026.2 8.3 305
Mondovì 26-03-2020 05:30 0.8 69 0 1026.2 6.8 304
Mondovì 26-03-2020 05:40 0.8 69 0 1026.2 4.7 290
Mondovì 26-03-2020 05:50 0.6 68 0 1026.2 5 301
Mondovì 26-03-2020 06:00 0.6 69 0 1026.2 4 264
Mondovì 26-03-2020 06:10 0.4 71 0 1026.2 5 232
Mondovì 26-03-2020 06:20 0 73 0 1026.3 5 235
Mondovì 26-03-2020 06:30 -0.2 75 0 1026.3 4.3 231
Mondovì 26-03-2020 06:40 -0.3 77 0 1026.3 6.1 238
Mondovì 26-03-2020 06:50 -0.2 77 0 1026.3 6.5 242
Mondovì 26-03-2020 07:00 -0.1 77 0 1026.3 7.9 240
Mondovì 26-03-2020 07:10 0.1 76 0 1026.4 8.3 246
Mondovì 26-03-2020 07:20 0.5 75 0 1026.4 7.6 244
Mondovì 26-03-2020 07:30 0.8 75 0 1026.4 9.4 263
Mondovì 26-03-2020 07:40 1 74 0 1026.4 7.9 268
Mondovì 26-03-2020 07:50 1.1 72 0 1026.3 7.2 274
Mondovì 26-03-2020 08:00 1.3 72 0 1026.3 9.4 277
Mondovì 26-03-2020 08:10 1.6 70 0 1026.3 9 276
Mondovì 26-03-2020 08:20 1.8 68 0 1026.2 11.5 291
Mondovì 26-03-2020 08:30 2.1 67 0 1026.2 11.9 288
Mondovì 26-03-2020 08:40 2.7 63 0 1026.1 7.2 278
Mondovì 26-03-2020 08:50 3 60 0 1026.1 8.3 280
Mondovì 26-03-2020 09:00 3.2 61 0 1026 9 290
Mondovì 26-03-2020 09:10 3.1 60 0 1025.9 10.4 289
Mondovì 26-03-2020 09:20 3.3 58 0 1025.9 10.4 294
Mondovì 26-03-2020 09:30 3.5 56 0 1025.8 7.9 305
Mondovì 26-03-2020 09:40 3.5 54 0 1025.7 8.3 315
Mondovì 26-03-2020 09:50 3.5 54 0 1025.7 10.1 302
Mondovì 26-03-2020 10:00 3.5 55 0 1025.6 11.5 302
Mondovì 26-03-2020 10:10 3.8 57 0 1025.6 8.3 270
Mondovì 26-03-2020 10:20 4.1 56 0 1025.6 7.9 304
Mondovì 26-03-2020 10:30 4.1 55 0 1025.6 9.4 265
Mondovì 26-03-2020 10:40 4 55 0 1025.5 6.8 282
Mondovì 26-03-2020 10:50 4 55 0 1025.5 6.8 272
Mondovì 26-03-2020 11:00 4 55 0 1025.5 7.6 274
Mondovì 26-03-2020 11:10 4.3 55 0 1025.5 8.6 259
Mondovì 26-03-2020 11:20 4.3 55 0 1025.5 8.6 281
Mondovì 26-03-2020 11:30 4.2 54 0 1025.4 11.9 291
Mondovì 26-03-2020 11:40 4.4 54 0 1025.4 9.7 284
Mondovì 26-03-2020 11:50 4.4 53 0 1025.4 10.8 265
Mondovì 26-03-2020 12:00 4.3 54 0 1025.4 11.2 274
Mondovì 26-03-2020 12:10 4.3 54 0 1025.4 9.4 276
Mondovì 26-03-2020 12:20 4.5 54 0 1025.4 10.4 282
Mondovì 26-03-2020 12:30 4.8 54 0 1025.5 10.8 276
Mondovì 26-03-2020 12:40 4.8 52 0 1025.5 13.7 291
Mondovì 26-03-2020 12:50 4.9 56 0 1025.4 21.6 312
Mondovì 26-03-2020 13:00 4.2 63 0 1025.4 18.4 288
Mondovì 26-03-2020 13:10 3.3 66 0 1025.4 19.4 305
Mondovì 26-03-2020 13:20 3.5 70 0 1025.4 18.4 246
Mondovì 26-03-2020 13:30 3.5 70 0 1025.5 16.9 273
Mondovì 26-03-2020 13:40 3.4 74 0 1025.5 14.4 267
Mondovì 26-03-2020 13:50 3 80 0 1025.5 12.6 268
Mondovì 26-03-2020 14:00 2.6 84 0 1025.5 11.2 264
Mondovì 26-03-2020 14:10 2.2 86 0 1025.5 12.6 269
Mondovì 26-03-2020 14:20 1.9 88 0 1025.5 10.8 258
Mondovì 26-03-2020 14:30 1.6 90 0.2 1025.6 10.4 254
Mondovì 26-03-2020 14:40 1.4 92 0.2 1025.6 7.2 256
Mondovì 26-03-2020 14:50 1.2 93 0 1025.7 8.6 256
Mondovì 26-03-2020 15:00 0.8 95 0 1025.7 7.2 263
Mondovì 26-03-2020 15:10 0.9 95 0 1025.8 6.5 263
Mondovì 26-03-2020 15:20 0.9 95 0.2 1025.8 9 241
Mondovì 26-03-2020 15:30 0.9 96 0.4 1025.8 9.4 239
Mondovì 26-03-2020 15:40 1 96 0.2 1025.9 10.1 236
Mondovì 26-03-2020 15:50 1.1 96 0.2 1025.9 10.4 234
Mondovì 26-03-2020 16:00 0.9 96 0 1025.9 10.1 231
Mondovì 26-03-2020 16:10 0.6 97 0 1025.9 7.9 238
Mondovì 26-03-2020 16:20 0.5 98 0 1025.9 9.7 245
Mondovì 26-03-2020 16:30 0.5 98 0 1026 8.3 247
Mondovì 26-03-2020 16:40 0.5 98 0 1026 7.2 235
Mondovì 26-03-2020 16:50 0.4 99 0 1026 6.8 237
Mondovì 26-03-2020 17:00 0.5 99 0 1026 8.6 229
Mondovì 26-03-2020 17:10 0.6 99 0 1026 9.7 228
Mondovì 26-03-2020 17:20 0.7 99 0 1026 9.4 225
Mondovì 26-03-2020 17:30 0.7 99 0 1026.1 9.7 224
Mondovì 26-03-2020 17:40 0.7 99 0 1026.1 7.9 230
Mondovì 26-03-2020 17:50 0.8 99 0 1026.1 9 226
Mondovì 26-03-2020 18:00 0.9 99 0 1026.1 13 233
Mondovì 26-03-2020 18:10 0.9 99 0 1026.1 14.4 234
Mondovì 26-03-2020 18:20 1.1 98 0 1026.1 10.4 212
Mondovì 26-03-2020 18:30 1.2 97 0 1026.1 10.8 210
Mondovì 26-03-2020 18:40 1.4 95 0 1026.1 16.2 225
Mondovì 26-03-2020 18:50 1.4 93 0 1026.1 16.2 226
Mondovì 26-03-2020 19:00 1.5 93 0.2 1026.1 10.1 217
Mondovì 26-03-2020 19:10 1.7 91 0 1026.1 11.2 214
Mondovì 26-03-2020 19:20 1.7 89 0.2 1026.1 13.7 220
Mondovì 26-03-2020 19:30 1.7 89 0 1026.1 11.5 219
Mondovì 26-03-2020 19:40 1.8 89 0.2 1026.1 13.7 220
Mondovì 26-03-2020 19:50 1.8 88 0.2 1026.1 12.2 228
Mondovì 26-03-2020 20:00 1.9 88 0.2 1026.1 10.1 218
Mondovì 26-03-2020 20:10 2.1 88 0.2 1026.1 12.2 207
Mondovì 26-03-2020 20:20 2.1 87 0.2 1026.1 12.2 211
Mondovì 26-03-2020 20:30 2.2 87 0.2 1026.1 11.2 213
Mondovì 26-03-2020 20:40 2.2 88 0.2 1026 8.3 188
Mondovì 26-03-2020 20:50 2.2 88 0.2 1026 5.8 184
Mondovì 26-03-2020 21:00 2.2 89 0.4 1026 9.4 209
Mondovì 26-03-2020 21:10 2.2 90 0.2 1026 9.7 201
Mondovì 26-03-2020 21:20 2.3 90 0.2 1026 9.4 195
Mondovì 26-03-2020 21:30 2.3 91 0.2 1026 9.4 212
Mondovì 26-03-2020 21:40 2.3 91 0.2 1026 11.5 217
Mondovì 26-03-2020 21:50 2.4 91 0 1026 9.4 223
Mondovì 26-03-2020 22:00 2.4 91 0 1026 15.1 228
Mondovì 26-03-2020 22:10 2.5 91 0 1026 11.9 226
Mondovì 26-03-2020 22:20 2.8 90 0 1026 12.2 268
Mondovì 26-03-2020 22:30 2.8 89 0 1026 9.4 238
Mondovì 26-03-2020 22:40 2.8 89 0.2 1026 10.1 233
Mondovì 26-03-2020 22:50 2.9 89 0 1025.9 9.7 228
Mondovì 26-03-2020 23:00 2.9 88 0 1025.9 10.8 231
Mondovì 26-03-2020 23:10 3 88 0 1025.9 10.4 247
Mondovì 26-03-2020 23:20 3 87 0 1025.9 12.6 260
Mondovì 26-03-2020 23:30 3 89 0 1025.9 7.2 255
Mondovì 26-03-2020 23:40 2.8 90 0 1025.9 5.4 247
Mondovì 26-03-2020 23:50 2.8 91 0.2 1025.9 7.2 237
Mondovì 27-03-2020 00:00 2.7 92 0 1025.9 6.8 233
Mondovì 27-03-2020 00:10 2.7 93 0 1025.9 5.4 208
Mondovì 27-03-2020 00:20 2.7 93 0 1025.9 4.7 194
Mondovì 27-03-2020 00:30 2.7 94 0 1025.9 4.7 249
Mondovì 27-03-2020 00:40 2.7 94 0 1025.9 7.2 239
Mondovì 27-03-2020 00:50 2.8 94 0 1025.9 9.4 220
Mondovì 27-03-2020 01:00 2.8 94 0.2 1025.9 6.5 234
Mondovì 27-03-2020 01:20 3.5 95 0 1025.9 10.8 242
Mondovì 27-03-2020 01:30 2.7 94 0.2 1025.9 9.4 243
Mondovì 27-03-2020 01:40 2.6 94 0.2 1025.9 7.6 249
Mondovì 27-03-2020 01:50 2.6 95 0 1025.8 8.3 244
Mondovì 27-03-2020 02:00 2.6 95 0 1025.9 12.6 252
Mondovì 27-03-2020 02:10 2.6 95 0 1025.9 11.2 246
Mondovì 27-03-2020 02:20 2.4 95 0.2 1025.9 12.6 244
Mondovì 27-03-2020 02:30 2.4 96 0 1025.9 12.6 233
Mondovì 27-03-2020 02:40 2.4 96 0 1025.9 10.4 236
Mondovì 27-03-2020 02:50 2.5 96 0 1025.9 12.6 238
Mondovì 27-03-2020 03:00 2.7 95 0 1025.9 11.2 245
Mondovì 27-03-2020 03:10 2.8 95 0 1025.9 10.4 264
Mondovì 27-03-2020 03:20 2.8 95 0 1025.9 11.2 257
Mondovì 27-03-2020 03:30 2.9 95 0 1025.9 13 240
Mondovì 27-03-2020 03:40 2.9 95 0 1025.9 8.6 253
Mondovì 27-03-2020 03:50 2.9 95 0 1025.9 10.4 246
Mondovì 27-03-2020 04:00 3 95 0 1025.9 8.3 252
Mondovì 27-03-2020 04:10 3 95 0 1025.8 8.6 253
Mondovì 27-03-2020 04:20 3.1 95 0 1025.8 8.6 246
Mondovì 27-03-2020 04:30 3.1 95 0 1025.8 8.6 247
Mondovì 27-03-2020 04:40 3.2 96 0 1025.8 8.6 239
Mondovì 27-03-2020 04:50 3.2 96 0 1025.8 9 242
Mondovì 27-03-2020 05:00 3.2 96 0 1025.8 6.5 243
Mondovì 27-03-2020 05:10 3.2 96 0 1025.8 7.2 252
Mondovì 27-03-2020 05:20 3.2 96 0 1025.8 9.4 246
Mondovì 27-03-2020 05:30 3.3 96 0 1025.8 7.9 261
Mondovì 27-03-2020 05:40 3.3 96 0 1025.8 9.7 255
Mondovì 27-03-2020 05:50 3.4 95 0 1025.8 10.1 246
Mondovì 27-03-2020 06:00 3.4 95 0 1025.8 9 241
Mondovì 27-03-2020 06:10 3.4 95 0 1025.8 12.6 241
Mondovì 27-03-2020 06:20 3.5 94 0 1025.8 12.2 237
Mondovì 27-03-2020 06:30 3.6 93 0 1025.8 11.5 235
Mondovì 27-03-2020 06:40 3.7 93 0 1025.8 16.9 235
Mondovì 27-03-2020 06:50 3.7 93 0 1025.8 13.3 237
Mondovì 27-03-2020 07:00 3.8 93 0 1025.8 11.9 235
Mondovì 27-03-2020 07:10 3.8 93 0 1025.7 14.4 235
Mondovì 27-03-2020 07:20 3.9 93 0 1025.8 13 239
Mondovì 27-03-2020 07:30 3.9 93 0 1025.7 13.3 235
Mondovì 27-03-2020 07:40 4 93 0 1025.7 13.3 233
Mondovì 27-03-2020 07:50 4 92 0 1025.7 13.7 238
Mondovì 27-03-2020 08:00 4.1 92 0 1025.7 17.3 236
Mondovì 27-03-2020 08:10 4.1 92 0 1025.7 14.8 228
Mondovì 27-03-2020 08:20 4.2 92 0 1025.7 15.8 235
Mondovì 27-03-2020 08:30 4.2 92 0 1025.7 16.2 245
Mondovì 27-03-2020 08:40 4.3 92 0 1025.7 18 242
Mondovì 27-03-2020 08:50 4.3 91 0 1025.7 17.3 240
Mondovì 27-03-2020 09:00 4.4 90 0 1025.7 17.6 240
Mondovì 27-03-2020 09:10 4.4 90 0 1025.7 14 242
Mondovì 27-03-2020 09:20 4.5 90 0 1025.6 17.3 230
Mondovì 27-03-2020 09:30 4.5 90 0 1025.6 14.4 227
Mondovì 27-03-2020 09:40 4.5 89 0 1025.6 18.4 232
Mondovì 27-03-2020 09:50 4.5 90 0.2 1025.6 20.5 228
Mondovì 27-03-2020 10:00 4.3 90 0 1025.6 15.5 219
Mondovì 27-03-2020 10:10 4.3 90 0 1025.6 14.8 218
Mondovì 27-03-2020 10:20 4.3 90 0.2 1025.6 14.4 220
Mondovì 27-03-2020 10:30 4.3 90 0 1025.6 22 229
Mondovì 27-03-2020 10:40 4.5 89 0 1025.6 18.4 221
Mondovì 27-03-2020 10:50 4.5 89 0 1025.6 16.2 220
Mondovì 27-03-2020 11:00 4.5 90 0 1025.6 16.6 228
Mondovì 27-03-2020 11:10 4.3 91 0.4 1025.6 19.4 231
Mondovì 27-03-2020 11:20 4.2 92 0.2 1025.6 15.1 220
Mondovì 27-03-2020 11:30 4.2 93 0.2 1025.6 13.3 227
Mondovì 27-03-2020 11:40 4.3 94 0 1025.6 10.4 230
Mondovì 27-03-2020 11:50 4.3 94 0.2 1025.6 8.3 247
Mondovì 27-03-2020 12:00 4.4 94 0 1025.6 6.8 221
Mondovì 27-03-2020 12:10 4.6 94 0.2 1025.6 9.4 221
Mondovì 27-03-2020 12:20 4.8 94 0.2 1025.6 9 222
Mondovì 27-03-2020 12:30 5 94 0.2 1025.6 7.9 228
Mondovì 27-03-2020 12:40 5.2 94 0.2 1025.6 12.2 235
Mondovì 27-03-2020 12:50 5.2 94 0.2 1025.5 11.9 240
Mondovì 27-03-2020 13:00 5.2 93 0 1025.5 12.2 235
Mondovì 27-03-2020 13:10 5.2 94 0.2 1025.5 12.6 231
Mondovì 27-03-2020 13:20 5.3 93 0.2 1025.5 13 237
Mondovì 27-03-2020 13:30 5.3 93 0 1025.5 12.6 241
Mondovì 27-03-2020 13:40 5.2 93 0.2 1025.4 12.6 245
Mondovì 27-03-2020 13:50 5.3 93 0.2 1025.4 11.2 250
Mondovì 27-03-2020 14:00 5.4 93 0.2 1025.4 10.8 242
Mondovì 27-03-2020 14:10 5.3 93 0.2 1025.4 12.6 241
Mondovì 27-03-2020 14:20 5.3 93 0 1025.4 11.5 242
Mondovì 27-03-2020 14:30 5.2 93 0.2 1025.4 16.2 238
Mondovì 27-03-2020 14:40 5.3 93 0.2 1025.4 15.5 236
Mondovì 27-03-2020 14:50 5.4 94 0 1025.4 15.1 235
Mondovì 27-03-2020 15:00 5.4 94 0.2 1025.4 15.1 235
Mondovì 27-03-2020 15:10 5.6 94 0 1025.4 14.4 232
Mondovì 27-03-2020 15:20 5.6 94 0 1025.4 16.9 235
Mondovì 27-03-2020 15:30 5.6 93 0.2 1025.4 16.6 240
Mondovì 27-03-2020 15:40 5.5 93 0 1025.4 14.8 236
Mondovì 27-03-2020 15:50 5.4 93 0 1025.4 15.5 234
Mondovì 27-03-2020 16:00 5.4 94 0 1025.4 12.6 231
Mondovì 27-03-2020 16:10 5.3 94 0 1025.4 12.2 233
Mondovì 27-03-2020 16:20 5.4 94 0 1025.4 12.2 230
Mondovì 27-03-2020 16:30 5.4 94 0 1025.4 11.9 232
Mondovì 27-03-2020 16:40 5.4 93 0 1025.4 14.4 228
Mondovì 27-03-2020 16:50 5.4 92 0 1025.4 11.2 218
Mondovì 27-03-2020 17:00 5.5 91 0 1025.4 9 211
Mondovì 27-03-2020 17:10 5.5 91 0 1025.4 9.4 230
Mondovì 27-03-2020 17:20 5.6 90 0 1025.4 8.3 200
Mondovì 27-03-2020 17:30 5.6 90 0 1025.4 6.8 200
Mondovì 27-03-2020 17:40 5.6 90 0 1025.4 8.3 195
Mondovì 27-03-2020 17:50 5.6 90 0 1025.4 9.7 197
Mondovì 27-03-2020 18:00 5.7 89 0 1025.4 11.5 192
Mondovì 27-03-2020 18:10 5.7 89 0 1025.4 9.7 200
Mondovì 27-03-2020 18:20 5.8 87 0 1025.4 9.7 197
Mondovì 27-03-2020 18:30 5.9 86 0 1025.4 9.7 197
Mondovì 27-03-2020 18:40 5.9 86 0 1025.4 10.1 193
Mondovì 27-03-2020 18:50 5.9 85 0 1025.4 9.4 192
Mondovì 27-03-2020 19:00 5.9 85 0 1025.4 9 189
Mondovì 27-03-2020 19:10 5.9 85 0 1025.4 10.8 195
Mondovì 27-03-2020 19:20 5.9 85 0 1025.4 9.4 186
Mondovì 27-03-2020 19:30 6 85 0 1025.4 10.1 201
Mondovì 27-03-2020 19:40 6 85 0 1025.4 8.6 194
Mondovì 27-03-2020 19:50 6.2 84 0 1025.4 8.3 185
Mondovì 27-03-2020 20:00 6.2 84 0 1025.4 7.2 180
Mondovì 27-03-2020 20:10 6.2 83 0 1025.4 8.3 180
Mondovì 27-03-2020 20:20 6.2 83 0 1025.4 8.6 173
Mondovì 27-03-2020 20:30 6.2 84 0 1025.4 8.3 178
Mondovì 27-03-2020 20:40 6 85 0 1025.4 8.6 191
Mondovì 27-03-2020 20:50 6.2 85 0 1025.3 6.5 183
Mondovì 27-03-2020 21:00 6.2 84 0 1025.3 5 206
Mondovì 27-03-2020 21:10 6.2 85 0 1025.3 5.4 250
Mondovì 27-03-2020 21:20 6.3 84 0 1025.3 7.9 220
Mondovì 27-03-2020 21:30 6.5 83 0 1025.3 8.6 200
Mondovì 27-03-2020 21:40 6.6 81 0 1025.3 8.6 192
Mondovì 27-03-2020 21:50 6.6 82 0 1025.3 7.2 177
Mondovì 27-03-2020 22:00 6.5 83 0 1025.3 6.5 179
Mondovì 27-03-2020 22:10 6.6 83 0 1025.3 10.8 199
Mondovì 27-03-2020 22:20 6.7 82 0 1025.3 7.2 190
Mondovì 27-03-2020 22:30 6.6 82 0 1025.3 6.1 186
Mondovì 27-03-2020 22:40 6.6 82 0 1025.3 6.8 191
Mondovì 27-03-2020 22:50 6.6 83 0 1025.3 7.2 175
Mondovì 27-03-2020 23:00 6.7 83 0 1025.3 8.6 197
Mondovì 27-03-2020 23:10 6.8 83 0 1025.3 7.9 191
Mondovì 27-03-2020 23:20 7.1 82 0 1025.3 7.2 181
Mondovì 27-03-2020 23:30 7 82 0 1025.3 9 181
Mondovì 27-03-2020 23:40 6.8 82 0 1025.3 8.3 181
Mondovì 27-03-2020 23:50 6.8 82 0 1025.3 7.2 184
Mondovì 28-03-2020 00:00 6.8 83 0 1025.2 5 189
Mondovì 28-03-2020 00:10 6.6 84 0 1025.2 7.6 190
Mondovì 28-03-2020 00:20 6.6 84 0 1025.2 7.9 182
Mondovì 28-03-2020 00:30 6.5 84 0 1025.2 7.2 186
Mondovì 28-03-2020 00:40 6.4 84 0 1025.2 7.9 181
Mondovì 28-03-2020 00:50 6.4 84 0 1025.2 9.4 179
Mondovì 28-03-2020 01:00 6.4 84 0 1025.2 7.6 182
Mondovì 28-03-2020 01:20 7.1 86 0 1025.2 5 210
Mondovì 28-03-2020 01:30 6.3 87 0 1025.3 4.3 332
Mondovì 28-03-2020 01:40 6.2 88 0 1025.3 4.3 26
Mondovì 28-03-2020 01:50 6 90 0 1025.3 2.5 3
Mondovì 28-03-2020 02:00 5.8 92 0 1025.3 6.1 291
Mondovì 28-03-2020 02:10 5.7 93 0.2 1025.3 3.6 247
Mondovì 28-03-2020 02:20 5.6 94 0 1025.3 3.2 208
Mondovì 28-03-2020 02:30 5.7 94 0 1025.3 7.6 167
Mondovì 28-03-2020 02:40 6.1 93 0 1025.3 7.6 181
Mondovì 28-03-2020 02:50 6.1 92 0 1025.3 5.8 269
Mondovì 28-03-2020 03:00 6 92 0 1025.3 2.9 188
Mondovì 28-03-2020 03:10 6.1 92 0 1025.3 5.4 183
Mondovì 28-03-2020 03:20 6.1 91 0 1025.3 4 220
Mondovì 28-03-2020 03:30 6 91 0 1025.3 4.3 207
Mondovì 28-03-2020 03:40 6 91 0 1025.3 4.7 184
Mondovì 28-03-2020 03:50 6.2 90 0 1025.3 7.9 144
Mondovì 28-03-2020 04:00 6.3 89 0 1025.3 6.5 172
Mondovì 28-03-2020 04:10 6.4 87 0 1025.3 6.8 177
Mondovì 28-03-2020 04:20 6.4 87 0 1025.3 5.4 193
Mondovì 28-03-2020 04:30 6.5 87 0 1025.3 6.8 184
Mondovì 28-03-2020 04:40 6.5 86 0 1025.3 7.2 190
Mondovì 28-03-2020 04:50 6.5 86 0 1025.3 7.9 194
Mondovì 28-03-2020 05:00 6.6 86 0 1025.3 5.4 172
Mondovì 28-03-2020 05:10 6.4 86 0 1025.3 5.4 182
Mondovì 28-03-2020 05:20 6.4 87 0 1025.3 6.1 180
Mondovì 28-03-2020 05:30 6.5 87 0 1025.3 5.8 183
Mondovì 28-03-2020 05:40 6.4 89 0 1025.3 2.9 263
Mondovì 28-03-2020 05:50 6.2 90 0 1025.3 1.8 258
Mondovì 28-03-2020 06:00 6 90 0 1025.3 3.6 187
Mondovì 28-03-2020 06:10 6.4 89 0 1025.3 6.5 179
Mondovì 28-03-2020 06:20 6.6 86 0 1025.3 7.2 168
Mondovì 28-03-2020 06:30 6.7 85 0 1025.3 7.2 185
Mondovì 28-03-2020 06:40 6.8 84 0 1025.3 8.6 176
Mondovì 28-03-2020 06:50 6.8 84 0 1025.3 7.2 193
Mondovì 28-03-2020 07:00 6.8 84 0 1025.3 6.8 198
Mondovì 28-03-2020 07:10 7 84 0 1025.3 7.9 181
Mondovì 28-03-2020 07:20 7.2 83 0 1025.2 10.8 183
Mondovì 28-03-2020 07:30 7.7 81 0 1025.2 8.6 182
Mondovì 28-03-2020 07:40 7.8 80 0 1025.2 7.6 178
Mondovì 28-03-2020 07:50 8 80 0 1025.2 6.5 188
Mondovì 28-03-2020 08:00 8.2 79 0 1025.2 6.5 184
Mondovì 28-03-2020 08:10 8.6 78 0 1025.1 9 178
Mondovì 28-03-2020 08:20 9.2 76 0 1025.1 8.3 180
Mondovì 28-03-2020 08:30 10.1 74 0 1025.1 8.3 184
Mondovì 28-03-2020 08:40 11.2 72 0 1025 11.2 193
Mondovì 28-03-2020 08:50 11.9 68 0 1025 9.7 185
Mondovì 28-03-2020 09:00 13.7 67 0 1024.9 9.7 225
Mondovì 28-03-2020 09:10 14.1 61 0 1024.8 11.9 225
Mondovì 28-03-2020 09:20 14.1 59 0 1024.6 11.2 229
Mondovì 28-03-2020 09:30 15 57 0 1024.5 12.6 231
Mondovì 28-03-2020 09:40 15.5 57 0 1024.4 13.3 258
Mondovì 28-03-2020 09:50 15.9 57 0 1024.3 8.3 270
Mondovì 28-03-2020 10:00 15.5 58 0 1024.2 10.4 285
Mondovì 28-03-2020 10:10 16.3 54 0 1024.1 9.7 267
Mondovì 28-03-2020 10:20 17.2 50 0 1024 8.6 252
Mondovì 28-03-2020 10:30 17.2 49 0 1023.8 9.4 263
Mondovì 28-03-2020 10:40 16.7 50 0 1023.7 7.2 320
Mondovì 28-03-2020 10:50 16.9 51 0 1023.6 9 331
Mondovì 28-03-2020 11:00 16.9 49 0 1023.5 8.3 319
Mondovì 28-03-2020 11:10 17.1 48 0 1023.5 9.4 332
Mondovì 28-03-2020 11:20 17.3 50 0 1023.4 10.8 292
Mondovì 28-03-2020 11:30 16.9 46 0 1023.3 9.7 11
Mondovì 28-03-2020 11:40 17 47 0 1023.2 9 27
Mondovì 28-03-2020 11:50 17.5 47 0 1023.2 10.1 267
Mondovì 28-03-2020 12:00 17.5 46 0 1023.2 8.3 298
Mondovì 28-03-2020 12:10 17.7 45 0 1023.1 11.2 293
Mondovì 28-03-2020 12:20 17.7 46 0 1023.1 7.6 141
Mondovì 28-03-2020 12:30 17.8 46 0 1023 13 13
Mondovì 28-03-2020 12:40 17.7 47 0 1023 10.8 351
Mondovì 28-03-2020 12:50 18 43 0 1023 10.4 357
Mondovì 28-03-2020 13:00 18.6 45 0 1023 10.1 10
Mondovì 28-03-2020 13:10 18.7 44 0 1023 12.2 342
Mondovì 28-03-2020 13:20 19.3 46 0 1023 10.8 33
Mondovì 28-03-2020 13:30 18.8 43 0 1023 8.6 315
Mondovì 28-03-2020 13:40 19.3 44 0 1023 7.9 301
Mondovì 28-03-2020 13:50 19.4 45 0 1023 13 351
Mondovì 28-03-2020 14:00 18.7 43 0 1023 14 11
Mondovì 28-03-2020 14:10 18.8 45 0 1022.9 15.1 26
Mondovì 28-03-2020 14:20 18.6 44 0 1022.9 12.6 35
Mondovì 28-03-2020 14:30 19.1 44 0 1022.9 9 60
Mondovì 28-03-2020 14:40 18.7 45 0 1022.9 13 40
Mondovì 28-03-2020 14:50 19.3 44 0 1022.9 10.4 60
Mondovì 28-03-2020 15:00 19.3 44 0 1022.9 14.8 34
Mondovì 28-03-2020 15:10 19.6 42 0 1022.9 10.4 19
Mondovì 28-03-2020 15:20 19.9 43 0 1022.8 14 355
Mondovì 28-03-2020 15:30 19.8 43 0 1022.8 8.3 39
Mondovì 28-03-2020 15:40 19.4 43 0 1022.8 9.4 28
Mondovì 28-03-2020 15:50 18.4 46 0 1022.8 8.6 71
Mondovì 28-03-2020 16:00 18 45 0 1022.8 7.6 44
Mondovì 28-03-2020 16:10 17.7 46 0 1022.9 7.9 38
Mondovì 28-03-2020 16:20 17.1 46 0 1023 6.1 37
Mondovì 28-03-2020 16:30 17.4 46 0 1023 5 55
Mondovì 28-03-2020 16:40 18 42 0 1023.1 5.8 70
Mondovì 28-03-2020 16:50 19.1 40 0 1023.1 5.4 70
Mondovì 28-03-2020 17:00 19.2 40 0 1023.1 7.2 124
Mondovì 28-03-2020 17:10 19.3 38 0 1023.1 5.4 122
Mondovì 28-03-2020 17:20 18.7 43 0 1023.1 4 97
Mondovì 28-03-2020 17:30 17.9 45 0 1023.1 5.8 145
Mondovì 28-03-2020 17:40 16.8 42 0 1023.1 6.1 168
Mondovì 28-03-2020 17:50 16.4 46 0 1023.2 4.3 137
Mondovì 28-03-2020 18:00 16 48 0 1023.3 3.6 91
Mondovì 28-03-2020 18:10 15.7 48 0 1023.4 2.9 112
Mondovì 28-03-2020 18:20 15.6 48 0 1023.5 3.6 92
Mondovì 28-03-2020 18:30 15.2 50 0 1023.6 3.2 98
Mondovì 28-03-2020 18:40 14.4 53 0 1023.7 3.2 103
Mondovì 28-03-2020 18:50 13.5 55 0 1023.7 3.2 70
Mondovì 28-03-2020 19:00 12.8 55 0 1023.8 1.4 8
Mondovì 28-03-2020 19:10 12.2 60 0 1023.9 5.4 36
Mondovì 28-03-2020 19:20 12.4 60 0 1024 6.8 188
Mondovì 28-03-2020 19:30 12.2 65 0 1024.1 5.4 212
Mondovì 28-03-2020 19:40 11.6 65 0 1024.2 6.8 204
Mondovì 28-03-2020 19:50 11.6 64 0 1024.2 7.9 190
Mondovì 28-03-2020 20:00 11.6 64 0 1024.3 7.2 190
Mondovì 28-03-2020 20:10 11.4 65 0 1024.3 6.1 192
Mondovì 28-03-2020 20:20 11 65 0 1024.4 5.4 188
Mondovì 28-03-2020 20:30 10.8 65 0 1024.4 5 187
Mondovì 28-03-2020 20:40 10.5 66 0 1024.5 4 176
Mondovì 28-03-2020 20:50 10.1 69 0 1024.5 5.4 230
Mondovì 28-03-2020 21:00 9.3 69 0 1024.6 6.8 260
Mondovì 28-03-2020 21:10 9.1 70 0 1024.6 4.7 229
Mondovì 28-03-2020 21:20 8.7 70 0 1024.7 5.4 160
Mondovì 28-03-2020 21:30 8.7 70 0 1024.7 5 190
Mondovì 28-03-2020 21:40 8.8 70 0 1024.8 5.8 189
Mondovì 28-03-2020 21:50 8.5 73 0 1024.8 4 208
Mondovì 28-03-2020 22:00 7.9 74 0 1024.9 4.7 208
Mondovì 28-03-2020 22:10 7.4 75 0 1024.9 5.4 204
Mondovì 28-03-2020 22:20 7.3 76 0 1025 5.4 218
Mondovì 28-03-2020 22:30 6.9 76 0 1025 4.7 206
Mondovì 28-03-2020 22:40 7.1 76 0 1025.1 3.6 200
Mondovì 28-03-2020 22:50 7.1 75 0 1025.1 5.4 201
Mondovì 28-03-2020 23:00 6.8 77 0 1025.1 4.3 258
Mondovì 28-03-2020 23:10 6.3 77 0 1025.2 3.6 337
Mondovì 28-03-2020 23:20 6.1 79 0 1025.2 2.9 337
Mondovì 28-03-2020 23:30 5.8 80 0 1025.2 2.9 31
Mondovì 28-03-2020 23:40 5.9 79 0 1025.3 4.7 180
Mondovì 28-03-2020 23:50 5.6 81 0 1025.3 4.7 232
Mondovì 29-03-2020 00:00 5.3 82 0 1025.3 4 266
Mondovì 29-03-2020 00:10 5.2 83 0 1025.4 3.6 230
Mondovì 29-03-2020 00:20 4.6 84 0 1025.4 3.6 220
Mondovì 29-03-2020 00:30 4.8 83 0 1025.4 3.6 196
Mondovì 29-03-2020 00:40 5.2 83 0 1025.5 5.8 169
Mondovì 29-03-2020 00:50 5.4 81 0 1025.5 5 189
Mondovì 29-03-2020 01:00 6.3 80 0 1025.5 7.6 180
Mondovì 29-03-2020 01:20 6.8 76 0 1025.5 6.8 182
Mondovì 29-03-2020 01:30 6.2 75 0 1025.5 6.5 176
Mondovì 29-03-2020 01:40 6 77 0 1025.5 5 214
Mondovì 29-03-2020 01:50 5.3 80 0 1025.5 3.2 227
Mondovì 29-03-2020 03:00 4.7 81 0 1025.5 4.3 218
Mondovì 29-03-2020 03:10 4.4 82 0 1025.5 4.3 210
Mondovì 29-03-2020 03:20 4.4 82 0 1025.6 5 234
Mondovì 29-03-2020 03:30 4.2 83 0 1025.6 5.8 238
Mondovì 29-03-2020 03:40 3.9 85 0 1025.6 5.4 210
Mondovì 29-03-2020 03:50 5.6 85 0 1025.6 5.8 183
Mondovì 29-03-2020 05:00 5.7 78 0 1025.6 5 201

Riassuntivo giornaliero del 29-03-2020